ROTAER D-AMDT 5/22 Ver mudanças

SAO PAULO CATARINA AEROPORTO EXECUTIVO ( SBJH ) / SÃO ROQUE, SP 23 25 37S/047 09 57W
AD INTL PUB UTC-3 VFR IFR L21 , L26 777 (2549)

12 - L9(3.25) [1] , L12 - ( 2470x33 ASPH 30/F/B/X/T L14 , L15 ) - L9 [2] , L12 - 30

SBCW (CRCEA-SE)
COM -
RÁDIO CATARINA 131.800
CMB- TF [4] RFFS - CAT - 5
MET - MET CIVIL –

[3] CMA 3

AIS - [3] AIS CIVIL – [3]

RMK -

CARACTERÍSTICAS FÍSICAS DAS PISTAS
  1. THR 12 deslocada em 173 metros
  2. THR 30 deslocada em 172 metros
REGULAMENTOS PARA TRÁFEGO LOCAL
  1. PRB OPS de TGL exceto para ACFT sediadas em SBJH.
INFORMAÇÃO ADICIONAL
  1. SVC referentes às formalidades de imigração, alfândega, saúde e agricultura,
    no atendimento de FLT INTL, deverão ser REQ com antecedência de 48 horas,
    pelo TEL: (11) 4130 4870 e (11) 93439-9231.
  2. IFR Não-precisão Diurno/Noturno
DISTÂNCIA(S) DECLARADA(S)
  1.  
RWY TORA(m) TODA(m) ASDA(m) LDA(m) ALT. GEOIDAL(m) COORDENADAS
12 2298 2470 2298 2125 -3,58 S23 25 34
W047 10 35
30 2297 2470 2297 2125 -3,58 S23 25 39
W047 09 20
COMPL -
  • [1] MEHT: 55FT
  • [2] MEHT: 56FT
  • [3] Autoatendimento
  • [4] O/R TEL (11) 4130-4870 e (11) 93439-9231.
TEMP (0)

Suplementos AIP (0)

NOTAM (0)

Nascer/Por do Sol

09:41

20:30


METAR

290500Z 12002KT CAVOK 14/10 Q1017=

TAF

281600Z 2818/2906 35005KT CAVOK TX26/2818Z TN14/2905Z BECMG 2818/2820 5000 HZ SCT030 BECMG 2820/2822 08005KT CAVOK RMK PGD=


OPEA/Obstáculos


Cartas (6)

IAC


SID


STAR



Rotas Preferenciais (0)